Latest Weather Observations for Cape Wessel

IDD60801

Issued at 11:21 pm CST Saturday 22 June 2024 (issued every 10 minutes, with the page automatically refreshed every 10 minutes)

About weather observations | Map of weather stations | Latest weather observations for NT | Other Formats
Station Details ID: 200786 Name: CAPE WESSEL Lat: -11.00 Lon: 136.76 Height: 18.0 m
Data from the previous 72 hours. | See also: Recent months at Cape Wessel
Date/Time
CST
Temp
°C
App
Temp
°C
Dew
Point
°C
Rel
Hum
%
Delta-T
°C
Wind Press
QNH
hPa
Press
MSL
hPa
Rain since
9am
mm
Dir  Spd
km/h
Gust
km/h
Spd
kts
Gust
kts
22/11:00pm 24.9 22.1 22.4 86 1.7 SSE 41 50 22 27 1013.8 1013.7 0.2
22/10:30pm 24.7 21.4 22.2 86 1.7 SE 43 54 23 29 1013.8 1013.7 0.2
22/10:00pm 24.8 22.0 22.5 87 1.5 SE 41 50 22 27 1014.0 1013.9 0.2
22/09:30pm 24.6 21.8 22.5 88 1.4 SE 41 50 22 27 1013.9 1013.8 0.2
22/09:00pm 24.7 21.6 22.6 88 1.4 SE 43 52 23 28 1014.0 1013.9 0.2
22/08:30pm 25.6 23.1 22.3 82 2.2 SSE 39 52 21 28 1013.7 1013.6 0.0
22/08:00pm 25.5 23.0 22.4 83 2.1 SSE 39 52 21 28 1013.4 1013.3 0.0
22/07:30pm 25.6 23.1 22.3 82 2.2 SSE 39 52 21 28 1013.4 1013.3 0.0
22/07:00pm 25.6 23.1 22.3 82 2.2 SSE 39 50 21 27 1013.1 1013.0 0.0
22/06:30pm 25.5 23.3 22.2 82 2.2 SSE 37 48 20 26 1012.7 1012.6 0.0
22/06:00pm 25.8 23.4 22.5 82 2.2 SE 39 52 21 28 1012.6 1012.5 0.0
22/05:30pm 26.0 23.0 22.1 79 2.6 SE 41 50 22 27 1012.3 1012.2 0.0
22/05:00pm 26.5 24.1 22.6 79 2.6 SSE 39 48 21 26 1012.0 1011.9 0.0
22/04:30pm 26.5 23.8 21.9 76 3.1 SSE 39 50 21 27 1012.0 1011.9 0.0
22/04:00pm 27.8 25.5 22.7 74 3.5 SSE 39 50 21 27 1011.8 1011.7 0.0
22/03:30pm 27.4 23.9 21.9 72 3.7 SE 43 52 23 28 1011.9 1011.8 0.0
22/03:00pm 27.7 24.4 22.2 72 3.7 SE 43 54 23 29 1012.1 1012.0 0.0
22/02:30pm 27.7 24.5 22.4 73 3.6 SE 43 52 23 28 1012.5 1012.4 0.0
22/02:00pm 27.8 25.3 22.3 72 3.7 SE 39 52 21 28 1012.8 1012.7 0.0
22/01:30pm 27.7 24.7 22.2 72 3.7 SE 41 52 22 28 1013.3 1013.2 0.0
22/01:00pm 27.8 24.9 22.3 72 3.7 SE 41 52 22 28 1013.7 1013.6 0.0
22/12:30pm 27.2 24.2 22.2 74 3.4 SE 41 48 22 26 1014.0 1013.9 0.0
22/12:00pm 26.7 23.6 21.9 75 3.2 SE 41 50 22 27 1014.3 1014.2 0.0
22/11:30am 26.9 23.8 21.9 74 3.3 SE 41 50 22 27 1014.6 1014.5 0.0
22/11:00am 27.9 24.9 22.2 71 3.8 SE 41 50 22 27 1014.8 1014.7 0.0
22/10:30am 27.5 24.5 22.2 73 3.6 SE 41 50 22 27 1015.0 1014.9 0.0
22/10:00am 27.6 25.2 22.5 74 3.5 SE 39 50 21 27 1015.0 1014.9 0.0
22/09:30am 27.7 25.6 22.4 73 3.6 SE 37 46 20 25 1015.1 1015.0 0.0
22/09:00am 26.5 23.9 22.1 77 3.0 SE 39 46 21 25 1015.2 1015.1 0.0
22/08:30am 26.7 24.5 22.8 79 2.6 SE 39 48 21 26 1015.3 1015.2 0.0
22/08:00am 25.8 23.6 22.1 80 2.5 SE 37 46 20 25 1014.9 1014.8 0.0
22/07:30am 25.7 23.1 22.2 81 2.3 SE 39 46 21 25 1014.5 1014.4 0.0
22/07:00am 25.6 23.8 22.3 82 2.2 SE 35 46 19 25 1014.3 1014.2 0.0
22/06:30am 25.5 23.6 22.0 81 2.3 SE 35 46 19 25 1014.0 1013.9 0.0
22/06:00am 25.4 22.6 21.7 80 2.5 SE 39 48 21 26 1013.8 1013.7 0.0
22/05:30am 25.4 22.8 21.5 79 2.6 SSE 37 46 20 25 1013.8 1013.7 0.0
22/05:00am 25.5 23.3 21.4 78 2.7 SE 35 44 19 24 1013.6 1013.5 0.0
22/04:30am 25.6 23.0 21.5 78 2.7 SE 37 46 20 25 1013.6 1013.5 0.0
22/04:00am 25.4 23.1 21.3 78 2.7 SE 35 44 19 24 1013.3 1013.2 0.0
22/03:30am 25.4 22.2 21.1 77 2.8 SE 39 46 21 25 1013.2 1013.1 0.0
22/03:00am 25.4 23.1 21.3 78 2.7 SE 35 44 19 24 1013.5 1013.4 0.0
22/02:30am 25.5 23.1 21.0 76 3.0 SE 35 46 19 25 1013.6 1013.5 0.0
22/02:00am 25.4 22.4 20.6 75 3.1 SE 37 46 20 25 1013.9 1013.8 0.0
22/01:30am 25.5 22.4 20.5 74 3.3 SE 37 44 20 24 1014.2 1014.1 0.0
22/01:00am 25.7 22.2 20.5 73 3.4 SE 39 46 21 25 1014.4 1014.3 0.0
22/12:30am 25.8 23.3 20.8 74 3.3 SE 35 44 19 24 1014.6 1014.5 0.0
22/12:00am 25.8 22.5 20.8 74 3.3 SE 39 48 21 26 1014.5 1014.4 0.0
 
Date/Time
CST
Temp
°C
App
Temp
°C
Dew
Point
°C
Rel
Hum
%
Delta-T
°C
Wind Press
QNH
hPa
Press
MSL
hPa
Rain since
9am
mm
Dir  Spd
km/h
Gust
km/h
Spd
kts
Gust
kts
21/11:30pm 25.9 22.3 20.9 74 3.3 SE 41 48 22 26 1014.4 1014.3 0.0
21/11:00pm 25.9 22.6 20.9 74 3.3 SE 39 52 21 28 1014.5 1014.4 0.0
21/10:30pm 25.9 22.2 20.7 73 3.4 SE 41 50 22 27 1014.7 1014.6 0.0
21/10:00pm 25.9 22.6 20.9 74 3.3 SE 39 52 21 28 1014.6 1014.5 0.0
21/09:30pm 25.9 21.9 20.2 71 3.7 SE 41 50 22 27 1014.7 1014.6 0.0
21/09:00pm 25.9 22.5 20.7 73 3.4 SE 39 50 21 27 1014.8 1014.7 0.0
21/08:30pm 25.9 21.7 20.5 72 3.5 SE 43 54 23 29 1014.5 1014.4 0.0
21/08:00pm 25.8 22.5 20.8 74 3.3 SE 39 50 21 27 1014.4 1014.3 0.0
21/07:30pm 25.7 21.4 20.3 72 3.5 SE 43 50 23 27 1014.2 1014.1 0.0
21/07:00pm 25.8 22.1 20.8 74 3.3 SE 41 50 22 27 1013.7 1013.6 0.0
21/06:30pm 25.8 22.6 21.0 75 3.2 SE 39 48 21 26 1013.5 1013.4 0.0
21/06:00pm 25.8 22.4 20.6 73 3.4 SE 39 46 21 25 1013.3 1013.2 0.0
21/05:30pm 26.4 23.5 20.9 72 3.6 SE 37 48 20 26 1012.9 1012.8 0.0
21/05:00pm 26.9 23.9 20.7 69 4.1 SE 37 46 20 25 1012.7 1012.6 0.0
21/04:30pm 27.1 24.0 21.2 70 3.9 SE 39 46 21 25 1012.4 1012.3 0.0
21/04:00pm 27.7 25.5 21.5 69 4.1 SE 35 43 19 23 1012.2 1012.1 0.0
21/03:30pm 28.2 25.4 21.0 65 4.8 SE 37 46 20 25 1012.0 1011.9 0.0
21/03:00pm 28.7 26.2 21.7 66 4.7 SE 37 44 20 24 1012.1 1012.0 0.0
21/02:30pm 28.5 26.0 22.3 69 4.2 ESE 39 46 21 25 1012.3 1012.2 0.0
21/02:00pm 29.0 26.6 21.0 62 5.3 ESE 35 46 19 25 1012.5 1012.4 0.0
21/01:30pm 27.8 25.8 21.1 67 4.4 ESE 33 43 18 23 1012.8 1012.7 0.0
21/01:00pm 27.3 25.5 21.6 71 3.8 ESE 33 44 18 24 1013.3 1013.2 0.0
21/12:30pm 26.9 25.0 21.4 72 3.7 ESE 33 41 18 22 1013.7 1013.6 0.0
21/12:00pm 28.4 27.0 22.2 69 4.2 ESE 33 41 18 22 1013.9 1013.8 0.0
21/11:30am 28.4 26.7 21.7 67 4.5 SE 33 39 18 21 1014.3 1014.2 0.0
21/11:00am 25.7 25.6 23.6 88 1.4 SE 30 41 16 22 1014.8 1014.7 0.0
21/10:30am 27.0 25.1 22.8 78 2.8 SE 37 43 20 23 1015.0 1014.9 0.0
21/10:00am 27.5 26.6 22.2 73 3.6 SE 30 37 16 20 1015.1 1015.0 0.0
21/09:30am 27.9 26.9 21.9 70 4.0 SE 30 35 16 19 1015.0 1014.9 0.0
21/09:00am 27.0 25.9 22.4 76 3.1 SE 32 41 17 22 1015.1 1015.0 0.0
21/08:30am 27.7 26.9 21.7 70 4.0 SE 28 35 15 19 1014.8 1014.7 0.0
21/08:00am 26.4 25.8 21.2 73 3.4 ESE 26 37 14 20 1014.4 1014.3 0.0
21/07:30am 26.0 25.6 21.0 74 3.3 ESE 24 30 13 16 1013.8 1013.7 0.0
21/07:00am 25.2 24.5 21.1 78 2.7 ESE 26 32 14 17 1013.5 1013.4 0.0
21/06:30am 25.0 24.3 21.1 79 2.6 ESE 26 32 14 17 1013.1 1013.0 0.0
21/06:00am 25.0 23.8 20.9 78 2.7 ESE 28 33 15 18 1012.8 1012.7 0.0
21/05:30am 24.8 23.8 20.5 77 2.8 ESE 26 32 14 17 1012.6 1012.5 0.0
21/05:00am 24.8 24.1 20.3 76 2.9 ESE 24 32 13 17 1012.5 1012.4 0.0
21/04:30am 24.8 23.1 19.8 74 3.2 ESE 28 32 15 17 1012.3 1012.2 0.0
21/04:00am 24.8 23.0 19.6 73 3.3 ESE 28 32 15 17 1012.4 1012.3 0.0
21/03:30am 24.9 23.4 20.2 75 3.1 ESE 28 35 15 19 1012.2 1012.1 0.0
21/03:00am 25.0 23.0 20.0 74 3.2 ESE 30 35 16 19 1012.4 1012.3 0.0
21/02:30am 25.0 22.8 19.6 72 3.5 ESE 30 37 16 20 1012.4 1012.3 0.0
21/02:00am 25.1 22.9 19.5 71 3.6 ESE 30 39 16 21 1012.5 1012.4 0.0
21/01:30am 25.0 22.4 19.4 71 3.6 ESE 32 39 17 21 1012.8 1012.7 0.0
21/01:00am 25.1 22.2 19.2 70 3.8 ESE 33 39 18 21 1013.0 1012.9 0.0
21/12:30am 25.2 22.6 19.6 71 3.6 ESE 32 41 17 22 1013.3 1013.2 0.0
21/12:00am 25.3 22.7 19.4 70 3.8 ESE 32 41 17 22 1013.4 1013.3 0.0
 
Date/Time
CST
Temp
°C
App
Temp
°C
Dew
Point
°C
Rel
Hum
%
Delta-T
°C
Wind Press
QNH
hPa
Press
MSL
hPa
Rain since
9am
mm
Dir  Spd
km/h
Gust
km/h
Spd
kts
Gust
kts
20/11:30pm 25.3 22.8 19.7 71 3.6 ESE 32 37 17 20 1013.4 1013.3 0.0
20/11:00pm 25.4 22.8 20.0 72 3.5 ESE 33 41 18 22 1013.6 1013.5 0.0
20/10:30pm 25.3 22.9 19.9 72 3.5 ESE 32 39 17 21 1013.8 1013.7 0.0
20/10:00pm 25.4 22.8 19.8 71 3.6 ESE 33 41 18 22 1013.9 1013.8 0.0
20/09:30pm 25.6 23.2 19.9 70 3.7 ESE 32 39 17 21 1014.0 1013.9 0.0
20/09:00pm 25.6 23.0 19.9 70 3.7 ESE 33 44 18 24 1013.7 1013.6 0.0
20/08:30pm 25.6 22.9 20.4 73 3.4 ESE 35 43 19 23 1013.4 1013.3 0.0
20/08:00pm 25.5 22.5 19.9 71 3.6 ESE 35 43 19 23 1013.2 1013.1 0.0
20/07:30pm 25.5 22.5 19.9 71 3.6 ESE 35 44 19 24 1013.0 1012.9 0.0
20/07:00pm 25.6 23.1 20.2 72 3.5 ESE 33 43 18 23 1012.8 1012.7 0.0
20/06:30pm 25.6 23.0 19.9 70 3.7 ESE 33 43 18 23 1012.6 1012.5 0.0
20/06:00pm 25.7 23.1 19.8 70 3.8 ESE 33 43 18 23 1012.3 1012.2 0.0
20/05:30pm 26.1 23.5 20.0 69 4.0 ESE 33 43 18 23 1012.0 1011.9 0.0
20/05:00pm 26.5 24.3 20.3 68 4.1 ESE 32 41 17 22 1011.8 1011.7 0.0
20/04:30pm 27.1 24.6 20.2 66 4.5 ESE 33 43 18 23 1011.6 1011.5 0.0
20/04:00pm 27.7 25.4 20.5 65 4.7 ESE 33 41 18 22 1011.4 1011.3 0.0
20/03:30pm 28.2 26.2 20.7 63 5.0 ESE 32 41 17 22 1011.4 1011.3 0.0
20/03:00pm 28.5 26.2 20.5 62 5.3 ESE 33 43 18 23 1011.5 1011.4 0.0
20/02:30pm 28.5 26.1 21.0 64 5.0 ESE 35 43 19 23 1011.6 1011.5 0.0
20/02:00pm 28.3 26.2 21.6 67 4.5 ESE 35 44 19 24 1011.9 1011.8 0.0
20/01:30pm 28.8 26.9 22.1 67 4.5 ESE 35 46 19 25 1012.3 1012.2 0.0
20/01:00pm 28.0 25.6 21.8 69 4.2 ESE 37 46 20 25 1012.6 1012.5 0.0
20/12:30pm 29.4 28.2 22.6 67 4.6 ESE 33 43 18 23 1012.8 1012.7 0.0
20/12:00pm 27.5 27.7 22.7 75 3.3 ESE 26 33 14 18 1013.2 1013.1 0.0
20/11:30am 26.2 25.1 22.5 80 2.5 ESE 32 39 17 21 1013.6 1013.5 0.0
20/11:00am 28.0 27.5 21.5 67 4.3 SE 26 33 14 18 1013.8 1013.7 0.0
20/10:30am 30.0 29.8 22.7 65 5.0 SE 28 33 15 18 1013.8 1013.7 0.0
20/10:00am 29.4 29.0 22.4 66 4.8 SE 28 33 15 18 1014.0 1013.9 0.0
20/09:30am 28.1 27.7 21.6 68 4.3 SE 26 32 14 17 1013.9 1013.8 0.0
20/09:00am 28.1 27.7 21.6 68 4.3 SE 26 32 14 17 1013.8 1013.7 -
20/08:30am 27.3 26.9 21.6 71 3.8 SE 26 32 14 17 1013.6 1013.5 -
20/08:00am 26.5 25.4 21.0 72 3.6 SE 28 32 15 17 1013.2 1013.1 -
20/07:30am 25.5 24.9 21.2 77 2.8 ESE 26 37 14 20 1012.9 1012.8 -
20/07:00am 25.2 24.1 21.1 78 2.7 SE 28 33 15 18 1012.5 1012.4 -
20/06:30am 25.2 23.7 20.9 77 2.8 ESE 30 39 16 21 1012.2 1012.1 -
20/06:00am 25.2 23.6 20.7 76 3.0 ESE 30 35 16 19 1012.0 1011.9 -
20/05:30am 25.3 23.9 20.5 75 3.1 ESE 28 35 15 19 1012.0 1011.9 -
20/05:00am 25.2 23.3 20.2 74 3.3 ESE 30 37 16 20 1011.9 1011.8 -
20/04:30am 25.3 23.2 20.5 75 3.1 ESE 32 37 17 20 1011.7 1011.6 -
20/04:00am 25.4 23.4 20.0 72 3.5 ESE 30 35 16 19 1011.8 1011.7 -
20/03:30am 25.2 23.7 20.2 74 3.3 ESE 28 35 15 19 1011.7 1011.6 -
20/03:00am 25.1 23.4 19.7 72 3.5 ESE 28 39 15 21 1011.8 1011.7 0.0
20/02:30am 25.2 23.7 20.2 74 3.3 ESE 28 35 15 19 1011.9 1011.8 -
20/02:00am 25.3 22.9 19.9 72 3.5 ESE 32 37 17 20 1012.1 1012.0 -
20/01:30am 25.4 22.8 19.5 70 3.8 ESE 32 37 17 20 1012.1 1012.0 -
20/01:00am 25.3 23.4 20.1 73 3.4 ESE 30 39 16 21 1012.2 1012.1 -
20/12:30am 25.6 22.6 19.9 70 3.7 ESE 35 43 19 23 1012.4 1012.3 -
20/12:00am 25.5 22.6 20.1 72 3.5 E 35 43 19 23 1012.5 1012.4 -
 
Date/Time
CST
Temp
°C
App
Temp
°C
Dew
Point
°C
Rel
Hum
%
Delta-T
°C
Wind Press
QNH
hPa
Press
MSL
hPa
Rain since
9am
mm
Dir  Spd
km/h
Gust
km/h
Spd
kts
Gust
kts
19/11:30pm 25.6 23.2 20.4 73 3.4 E 33 41 18 22 1012.7 1012.6 -

Other formats

Comma delimited format used in spreadsheet applications
http://www.bom.gov.au/fwo/IDD60801/IDD60801.94147.axf

JavaScript Object Notation format (JSON) in row-major order
http://www.bom.gov.au/fwo/IDD60801/IDD60801.94147.json

Data quality

Most of these data are generated automatically and are frequently updated. Quality checks on data are not normally performed. It is possible for incorrect values to appear. Refer to information at About Latest Weather Observations and please check the disclaimer before using these data.